• Join FlightAware (Why Join?)
  • Login
  • US Flag 
11:12PM EDT


 

Airport Tracker/Info


-or-


 

Live Flight TrackerFlight Track Log ✈ N491N ✈ 18-Jun-2013 ✈ KMKG - KRME

Flight Track Log - Related Links

Times and Time Zones

All times are in EDT time to prevent confusion due to time zone crossing. See the N491N flight status page for this flight to view local times or setup timezone preferences in your user account.

Time Position Orientation Groundspeed Altitude Reporting Facility
EDT Latitude Longitude Course Direction KTS MPH feet Rate Location/Type
09:30PM 43.1625 -85.9831 95° East 268 308 8,800  Level Chicago Center
09:31PM 43.1542 -85.8650 95° East 307 353 10,600 1,620 Climbing Chicago Center
09:32PM 43.1431 -85.7317 96° East 346 398 12,200 1,500 Climbing Chicago Center
09:33PM 43.1322 -85.5939 96° East 360 414 13,700 1,440 Climbing Chicago Center
09:34PM 43.1206 -85.4550 97° East 367 422 15,200 1,560 Climbing Chicago Center
09:35PM 43.0953 -85.3668 94° East  Level FlightAware Approximate
09:35PM 43.1069 -85.2858 96° East 372 428 17,000  Level Chicago Center
09:36PM 43.0950 -85.1444 97° East 374 430 18,300 1,380 Climbing Chicago Center
09:37PM 43.0825 -85.0014 97° East 378 435 19,900 1,500 Climbing Chicago Center
09:39PM 43.0700 -84.8583 97° East 379 436 21,400 1,440 Climbing Chicago Center
09:40PM 43.0581 -84.7139 96° East 383 441 22,900 1,440 Climbing Chicago Center
09:41PM 43.0444 -84.5694 97° East 385 443 24,400 1,560 Climbing Chicago Center
09:42PM 43.0478 -84.3950 88° East 383 441 26,200 1,560 Climbing Chicago Center
09:43PM 43.0561 -84.2486 85° East 387 445 27,700 1,320 Climbing Chicago Center
09:44PM 43.0658 -84.0986 85° East 395 455 29,000 1,200 Climbing Chicago Center
09:45PM 43.0728 -83.9142 87° East 404 465 30,400 1,200 Climbing Cleveland Center
09:46PM 43.0836 -83.7500 85° East 416 479 31,700 1,200 Climbing Cleveland Center
09:47PM 43.0922 -83.5856 86° East 423 487 32,900 1,200 Climbing Cleveland Center
09:48PM 43.1006 -83.4208 86° East 428 493 34,200 1,260 Climbing Cleveland Center
09:49PM 43.1086 -83.2564 86° East 428 493 35,500 1,200 Climbing Cleveland Center
09:50PM 43.1164 -83.0917 86° East 428 493 36,700 1,200 Climbing Cleveland Center
09:51PM 43.1264 -82.9214 85° East 438 504 37,900 1,080 Climbing Cleveland Center
09:52PM 43.1167 -82.7167 94° East 450 518 38,900 540 Climbing Toronto Center
09:53PM 43.1333 -82.5500 82° East 460 529 39,000  Climbing Toronto Center
09:54PM 43.1333 -82.3667 90° East 470 541 39,000  Level Toronto Center
09:55PM 43.1500 -82.2000 82° East 470 541 39,000  Level Toronto Center
09:56PM 43.1500 -82.0167 90° East 470 541 39,000  Level Toronto Center
09:57PM 43.1667 -81.8333 83° East 470 541 39,000  Level Toronto Center
09:58PM 43.1667 -81.6500 90° East 470 541 39,000  Level Toronto Center
09:59PM 43.1667 -81.4667 90° East 480 552 39,000  Level Toronto Center
10:00PM 43.1833 -81.2833 83° East 480 552 39,000  Level Toronto Center
10:01PM 43.1833 -81.1167 90° East 470 541 39,000  Level Toronto Center
10:02PM 43.1833 -80.9167 90° East 480 552 39,000  Level Toronto Center
10:03PM 43.2000 -80.7500 82° East 470 541 39,000  Level Toronto Center
10:04PM 43.2000 -80.5500 90° East 480 552 39,000  Level Toronto Center
10:05PM 43.2167 -80.3833 82° East 480 552 39,000  Level Toronto Center
10:06PM 43.2167 -80.2000 90° East 480 552 39,000 -300 Level Toronto Center
10:07PM 43.2167 -80.0167 90° East 480 552 38,400 -1,080 Descending Toronto Center
10:08PM 43.2167 -79.8333 90° East 480 552 36,900 -1,500 Descending Toronto Center
10:09PM 43.2167 -79.6333 90° East 490 564 35,500 -1,020 Descending Toronto Center
10:10PM 43.2333 -79.4667 82° East 480 552 34,900 -1,080 Descending Toronto Center
10:11PM 43.2333 -79.2833 90° East 480 552 33,400 -1,560 Descending Toronto Center
10:12PM 43.2333 -79.1000 90° East 460 529 31,800 -1,200 Descending Toronto Center
10:13PM 43.2333 -78.9500 90° East 450 518 31,000 -420 Descending Toronto Center
10:14PM 43.2333 -78.7667 90° East 450 518 31,000 -300 Level Toronto Center
10:15PM 43.2500 -78.5833 83° East 460 529 30,500 -900 Descending Toronto Center
10:16PM 43.2333 -78.4000 97° East 460 529 29,200 -1,140 Descending Toronto Center
10:17PM 43.2333 -78.2333 90° East 460 529 28,300 -1,200 Descending Toronto Center
10:18PM 43.2333 -78.0500 90° East 470 541 26,800 -1,500 Descending Toronto Center
10:19PM 43.2333 -77.8667 90° East 470 541 25,300 -1,500 Descending Toronto Center
10:20PM 43.2500 -77.7167 81° East 460 529 23,900 -1,500 Descending Toronto Center
10:21PM 43.2500 -77.5333 90° East 450 518 22,300 -1,500 Descending Toronto Center
10:22PM 43.2333 -77.3667 98° East 440 506 20,900 -1,500 Descending Toronto Center
10:23PM 43.2333 -77.2000 90° East 430 495 19,400 -1,500 Descending Toronto Center
10:24PM 43.2333 -77.0500 90° East 420 483 17,900 -1,200 Descending Toronto Center
10:25PM 43.2500 -76.8833 82° East 410 472 17,000 -1,380 Descending Toronto Center
10:26PM 43.2500 -76.7500 90° East 400 460 15,200 -1,680 Descending Toronto Center
10:27PM 43.2333 -76.6167 100° East 370 426 13,700 -1,620 Descending Toronto Center
10:28PM 43.2333 -76.4667 90° East 350 403 12,000 -1,500 Descending Toronto Center
10:29PM 43.2333 -76.3333 90° East 340 391 10,700 -1,020 Descending Toronto Center
10:30PM 43.2333 -76.2167 90° East 330 380 10,000 -540 Descending Toronto Center
10:31PM 43.2461 -76.1033 81° East 322 371 9,500 -900 Descending Boston Center
10:32PM 43.2456 -75.9919 90° East 306 352 7,900 -1,860 Descending Boston Center
10:33PM 43.2406 -75.8833 94° East 258 297 5,900 -1,500 Descending Boston Center
10:34PM 43.2414 -75.7864 89° East 246 283 4,900 -1,020 Descending Boston Center
10:35PM 43.2375 -75.7036 94° East 233 268 4,000 -960 Descending Boston Center
10:36PM 43.2336 -75.6178 94° East 236 272 3,000 -840 Descending Boston Center
10:37PM 43.2253 -75.5406 98° East 212 244 2,400 -540 Descending Boston Center
10:38PM 43.2147 -75.4714 102° East 176 203 2,000 -240 Descending Boston Center
10:39PM 43.1847 -75.4217 130° Southeast 170 196 2,000 -180 Level Boston Center
10:40PM 43.1775 -75.3814 104° East 117 135 1,700 -540 Descending Boston Center
10:41PM 43.2067 -75.3772 North 112 129 1,000 -720 Descending Boston Center
10:43PM 43.2333 -75.4000 340° North  Level FlightAware Approximate
10:50PM 43.2338 -75.4070 340° North  Level Estimated
10:51PM 43.2333 -75.4000 340° North  Level FlightAware Approximate
10:52PM 43.2338 -75.4070 340° North  Level Estimated
10:53PM 43.2333 -75.4000 340° North  Level FlightAware Approximate
10:54PM 43.2338 -75.4070 340° North  Level Estimated
10:55PM 43.2333 -75.4000 340° North  Level FlightAware Approximate